Aviation Digital Data Service (ADDS)

Output produced by METARs form (1130 UTC 17 June 2019)
found at http://www.aviationweather.gov/metar/data/
 
METAR text: LFOE 171100Z AUTO 18005KT 140V230 9999 FEW001 SCT052 23/14 Q1019 NOSIG
Conditions at: LFOE (EVREUX/FAUVILLE , FR) observed 1100 UTC 17 June 2019
Temperature: 23.0°C (73°F)
Dewpoint: 14.0°C (57°F) [RH = 57%]
Pressure (altimeter): 30.09 inches Hg (1019.0 mb)
Winds: from the S (180 degrees) at 6 MPH (5 knots; 2.6 m/s)
Visibility: 6 or more miles (10+ km)
Ceiling: at least 12,000 feet AGL
Clouds: few clouds at 100 feet AGL
scattered clouds at 5200 feet AGL
Weather: no significant weather observed at this time

METAR text: LFOE 171030Z AUTO 19006KT 140V240 9999 SCT038 SCT050 22/12 Q1019 NOSIG
Conditions at: LFOE (EVREUX/FAUVILLE , FR) observed 1030 UTC 17 June 2019
Temperature: 22.0°C (72°F)
Dewpoint: 12.0°C (54°F) [RH = 53%]
Pressure (altimeter): 30.09 inches Hg (1019.0 mb)
Winds: from the S (190 degrees) at 7 MPH (6 knots; 3.1 m/s)
Visibility: 6 or more miles (10+ km)
Ceiling: at least 12,000 feet AGL
Clouds: scattered clouds at 3800 feet AGL
scattered clouds at 5000 feet AGL
Weather: no significant weather observed at this time

METAR text: LFOE 171000Z AUTO 17006KT 140V200 9999 FEW038 SCT050 22/13 Q1019 NOSIG
Conditions at: LFOE (EVREUX/FAUVILLE , FR) observed 1000 UTC 17 June 2019
Temperature: 22.0°C (72°F)
Dewpoint: 13.0°C (55°F) [RH = 57%]
Pressure (altimeter): 30.09 inches Hg (1019.0 mb)
Winds: from the S (170 degrees) at 7 MPH (6 knots; 3.1 m/s)
Visibility: 6 or more miles (10+ km)
Ceiling: at least 12,000 feet AGL
Clouds: few clouds at 3800 feet AGL
scattered clouds at 5000 feet AGL
Weather: no significant weather observed at this time

METAR text: LFOE 170930Z AUTO 18005KT 140V220 9999 FEW034 SCT050 21/12 Q1019 NOSIG
Conditions at: LFOE (EVREUX/FAUVILLE , FR) observed 0930 UTC 17 June 2019
Temperature: 21.0°C (70°F)
Dewpoint: 12.0°C (54°F) [RH = 56%]
Pressure (altimeter): 30.09 inches Hg (1019.0 mb)
Winds: from the S (180 degrees) at 6 MPH (5 knots; 2.6 m/s)
Visibility: 6 or more miles (10+ km)
Ceiling: at least 12,000 feet AGL
Clouds: few clouds at 3400 feet AGL
scattered clouds at 5000 feet AGL
Weather: no significant weather observed at this time

METAR text: LFOE 170900Z AUTO 16007KT 110V210 9999 SCT047 21/13 Q1020 NOSIG
Conditions at: LFOE (EVREUX/FAUVILLE , FR) observed 0900 UTC 17 June 2019
Temperature: 21.0°C (70°F)
Dewpoint: 13.0°C (55°F) [RH = 60%]
Pressure (altimeter): 30.12 inches Hg (1020.0 mb)
Winds: from the SSE (160 degrees) at 8 MPH (7 knots; 3.6 m/s)
Visibility: 6 or more miles (10+ km)
Ceiling: at least 12,000 feet AGL
Clouds: scattered clouds at 4700 feet AGL
Weather: no significant weather observed at this time

METAR text: LFOE 170830Z AUTO 15006KT 110V190 9999 FEW040 20/13 Q1020 NOSIG
Conditions at: LFOE (EVREUX/FAUVILLE , FR) observed 0830 UTC 17 June 2019
Temperature: 20.0°C (68°F)
Dewpoint: 13.0°C (55°F) [RH = 64%]
Pressure (altimeter): 30.12 inches Hg (1020.0 mb)
Winds: from the SSE (150 degrees) at 7 MPH (6 knots; 3.1 m/s)
Visibility: 6 or more miles (10+ km)
Ceiling: at least 12,000 feet AGL
Clouds: few clouds at 4000 feet AGL
Weather: no significant weather observed at this time

METAR text: LFOE 170800Z AUTO 16004KT 120V200 9999 BKN040 BKN052 19/13 Q1020 NOSIG
Conditions at: LFOE (EVREUX/FAUVILLE , FR) observed 0800 UTC 17 June 2019
Temperature: 19.0°C (66°F)
Dewpoint: 13.0°C (55°F) [RH = 68%]
Pressure (altimeter): 30.12 inches Hg (1020.0 mb)
Winds: from the SSE (160 degrees) at 5 MPH (4 knots; 2.1 m/s)
Visibility: 6 or more miles (10+ km)
Ceiling: 4000 feet AGL
Clouds: broken clouds at 4000 feet AGL
broken clouds at 5200 feet AGL
Weather: no significant weather observed at this time

METAR text: LFOE 170730Z AUTO 19003KT 160V220 9999 FEW041 BKN052 18/13 Q1020 NOSIG
Conditions at: LFOE (EVREUX/FAUVILLE , FR) observed 0730 UTC 17 June 2019
Temperature: 18.0°C (64°F)
Dewpoint: 13.0°C (55°F) [RH = 73%]
Pressure (altimeter): 30.12 inches Hg (1020.0 mb)
Winds: from the S (190 degrees) at 3 MPH (3 knots; 1.5 m/s)
Visibility: 6 or more miles (10+ km)
Ceiling: 5200 feet AGL
Clouds: few clouds at 4100 feet AGL
broken clouds at 5200 feet AGL
Weather: no significant weather observed at this time

METAR text: LFOE 170700Z AUTO VRB02KT 9999 BKN049 18/13 Q1020 NOSIG
Conditions at: LFOE (EVREUX/FAUVILLE , FR) observed 0700 UTC 17 June 2019
Temperature: 18.0°C (64°F)
Dewpoint: 13.0°C (55°F) [RH = 73%]
Pressure (altimeter): 30.12 inches Hg (1020.0 mb)
Winds: variable direction winds at 2 MPH (2 knots; 1.0 m/s)
Visibility: 6 or more miles (10+ km)
Ceiling: 4900 feet AGL
Clouds: broken clouds at 4900 feet AGL
Weather: no significant weather observed at this time

METAR text: LFOE 170630Z AUTO VRB02KT CAVOK 16/12 Q1020 NOSIG
Conditions at: LFOE (EVREUX/FAUVILLE , FR) observed 0630 UTC 17 June 2019
Temperature: 16.0°C (61°F)
Dewpoint: 12.0°C (54°F) [RH = 77%]
Pressure (altimeter): 30.12 inches Hg (1020.0 mb)
Winds: variable direction winds at 2 MPH (2 knots; 1.0 m/s)
Visibility: 6 or more miles (10+ km)
Ceiling: ceiling and visibility are OK
Clouds: unknown
Weather: no significant weather observed at this time

METAR text: LFOE 170600Z AUTO VRB02KT CAVOK 14/12 Q1020 NOSIG
Conditions at: LFOE (EVREUX/FAUVILLE , FR) observed 0600 UTC 17 June 2019
Temperature: 14.0°C (57°F)
Dewpoint: 12.0°C (54°F) [RH = 88%]
Pressure (altimeter): 30.12 inches Hg (1020.0 mb)
Winds: variable direction winds at 2 MPH (2 knots; 1.0 m/s)
Visibility: 6 or more miles (10+ km)
Ceiling: ceiling and visibility are OK
Clouds: unknown
Weather: no significant weather observed at this time

METAR text: LFOE 170530Z AUTO 17003KT 9999 BKN043 13/11 Q1020 NOSIG
Conditions at: LFOE (EVREUX/FAUVILLE , FR) observed 0530 UTC 17 June 2019
Temperature: 13.0°C (55°F)
Dewpoint: 11.0°C (52°F) [RH = 88%]
Pressure (altimeter): 30.12 inches Hg (1020.0 mb)
Winds: from the S (170 degrees) at 3 MPH (3 knots; 1.5 m/s)
Visibility: 6 or more miles (10+ km)
Ceiling: 4300 feet AGL
Clouds: broken clouds at 4300 feet AGL
Weather: no significant weather observed at this time

METAR text: LFOE 170500Z AUTO 00000KT 9999 SCT042 12/11 Q1020 NOSIG
Conditions at: LFOE (EVREUX/FAUVILLE , FR) observed 0500 UTC 17 June 2019
Temperature: 12.0°C (54°F)
Dewpoint: 11.0°C (52°F) [RH = 94%]
Pressure (altimeter): 30.12 inches Hg (1020.0 mb)
Winds: calm
Visibility: 6 or more miles (10+ km)
Ceiling: at least 12,000 feet AGL
Clouds: scattered clouds at 4200 feet AGL
Weather: no significant weather observed at this time

METAR text: LFOE 170430Z AUTO 23003KT CAVOK 11/10 Q1020 NOSIG
Conditions at: LFOE (EVREUX/FAUVILLE , FR) observed 0430 UTC 17 June 2019
Temperature: 11.0°C (52°F)
Dewpoint: 10.0°C (50°F) [RH = 94%]
Pressure (altimeter): 30.12 inches Hg (1020.0 mb)
Winds: from the SW (230 degrees) at 3 MPH (3 knots; 1.5 m/s)
Visibility: 6 or more miles (10+ km)
Ceiling: ceiling and visibility are OK
Clouds: unknown
Weather: no significant weather observed at this time

METAR text: LFOE 170400Z AUTO 23002KT CAVOK 11/10 Q1019 TEMPO 4000 BR
Conditions at: LFOE (EVREUX/FAUVILLE , FR) observed 0400 UTC 17 June 2019
Temperature: 11.0°C (52°F)
Dewpoint: 10.0°C (50°F) [RH = 94%]
Pressure (altimeter): 30.09 inches Hg (1019.0 mb)
Winds: from the SW (230 degrees) at 2 MPH (2 knots; 1.0 m/s)
Visibility: 6 or more miles (10+ km)
Ceiling: ceiling and visibility are OK
Clouds: unknown
Weather: no significant weather observed at this time

METAR text: LFOE 170330Z AUTO 14001KT CAVOK 11/10 Q1020 TEMPO 4000 BR
Conditions at: LFOE (EVREUX/FAUVILLE , FR) observed 0330 UTC 17 June 2019
Temperature: 11.0°C (52°F)
Dewpoint: 10.0°C (50°F) [RH = 94%]
Pressure (altimeter): 30.12 inches Hg (1020.0 mb)
Winds: from the SE (140 degrees) at 1 MPH (1 knots; 0.5 m/s)
Visibility: 6 or more miles (10+ km)
Ceiling: ceiling and visibility are OK
Clouds: unknown
Weather: no significant weather observed at this time

METAR text: LFOE 170300Z AUTO 19003KT CAVOK 11/10 Q1020 TEMPO 4000 BR
Conditions at: LFOE (EVREUX/FAUVILLE , FR) observed 0300 UTC 17 June 2019
Temperature: 11.0°C (52°F)
Dewpoint: 10.0°C (50°F) [RH = 94%]
Pressure (altimeter): 30.12 inches Hg (1020.0 mb)
Winds: from the S (190 degrees) at 3 MPH (3 knots; 1.5 m/s)
Visibility: 6 or more miles (10+ km)
Ceiling: ceiling and visibility are OK
Clouds: unknown
Weather: no significant weather observed at this time

METAR text: LFOE 170230Z AUTO 17003KT CAVOK 11/10 Q1020 TEMPO 4000 BR
Conditions at: LFOE (EVREUX/FAUVILLE , FR) observed 0230 UTC 17 June 2019
Temperature: 11.0°C (52°F)
Dewpoint: 10.0°C (50°F) [RH = 94%]
Pressure (altimeter): 30.12 inches Hg (1020.0 mb)
Winds: from the S (170 degrees) at 3 MPH (3 knots; 1.5 m/s)
Visibility: 6 or more miles (10+ km)
Ceiling: ceiling and visibility are OK
Clouds: unknown
Weather: no significant weather observed at this time

METAR text: LFOE 170200Z AUTO 13002KT CAVOK 12/10 Q1020 TEMPO 4000 BR
Conditions at: LFOE (EVREUX/FAUVILLE , FR) observed 0200 UTC 17 June 2019
Temperature: 12.0°C (54°F)
Dewpoint: 10.0°C (50°F) [RH = 88%]
Pressure (altimeter): 30.12 inches Hg (1020.0 mb)
Winds: from the SE (130 degrees) at 2 MPH (2 knots; 1.0 m/s)
Visibility: 6 or more miles (10+ km)
Ceiling: ceiling and visibility are OK
Clouds: unknown
Weather: no significant weather observed at this time

METAR text: LFOE 170130Z AUTO VRB03KT CAVOK 12/10 Q1020 TEMPO 4000 BR
Conditions at: LFOE (EVREUX/FAUVILLE , FR) observed 0130 UTC 17 June 2019
Temperature: 12.0°C (54°F)
Dewpoint: 10.0°C (50°F) [RH = 88%]
Pressure (altimeter): 30.12 inches Hg (1020.0 mb)
Winds: variable direction winds at 3 MPH (3 knots; 1.5 m/s)
Visibility: 6 or more miles (10+ km)
Ceiling: ceiling and visibility are OK
Clouds: unknown
Weather: no significant weather observed at this time

METAR text: LFOE 170100Z AUTO 21002KT CAVOK 12/11 Q1020 TEMPO 4000 BR
Conditions at: LFOE (EVREUX/FAUVILLE , FR) observed 0100 UTC 17 June 2019
Temperature: 12.0°C (54°F)
Dewpoint: 11.0°C (52°F) [RH = 94%]
Pressure (altimeter): 30.12 inches Hg (1020.0 mb)
Winds: from the SSW (210 degrees) at 2 MPH (2 knots; 1.0 m/s)
Visibility: 6 or more miles (10+ km)
Ceiling: ceiling and visibility are OK
Clouds: unknown
Weather: no significant weather observed at this time

METAR text: LFOE 170030Z AUTO 20004KT CAVOK 12/10 Q1020 TEMPO 4000 BR
Conditions at: LFOE (EVREUX/FAUVILLE , FR) observed 0030 UTC 17 June 2019
Temperature: 12.0°C (54°F)
Dewpoint: 10.0°C (50°F) [RH = 88%]
Pressure (altimeter): 30.12 inches Hg (1020.0 mb)
Winds: from the SSW (200 degrees) at 5 MPH (4 knots; 2.1 m/s)
Visibility: 6 or more miles (10+ km)
Ceiling: ceiling and visibility are OK
Clouds: unknown
Weather: no significant weather observed at this time

METAR text: LFOE 170000Z AUTO 19005KT CAVOK 13/11 Q1020 TEMPO 4000 BR
Conditions at: LFOE (EVREUX/FAUVILLE , FR) observed 0000 UTC 17 June 2019
Temperature: 13.0°C (55°F)
Dewpoint: 11.0°C (52°F) [RH = 88%]
Pressure (altimeter): 30.12 inches Hg (1020.0 mb)
Winds: from the S (190 degrees) at 6 MPH (5 knots; 2.6 m/s)
Visibility: 6 or more miles (10+ km)
Ceiling: ceiling and visibility are OK
Clouds: unknown
Weather: no significant weather observed at this time

METAR text: LFOE 162330Z AUTO 19004KT CAVOK 13/11 Q1020 TEMPO 4000 BR
Conditions at: LFOE (EVREUX/FAUVILLE , FR) observed 2330 UTC 16 June 2019
Temperature: 13.0°C (55°F)
Dewpoint: 11.0°C (52°F) [RH = 88%]
Pressure (altimeter): 30.12 inches Hg (1020.0 mb)
Winds: from the S (190 degrees) at 5 MPH (4 knots; 2.1 m/s)
Visibility: 6 or more miles (10+ km)
Ceiling: ceiling and visibility are OK
Clouds: unknown
Weather: no significant weather observed at this time

METAR text: LFOE 162300Z AUTO 18004KT CAVOK 13/11 Q1020 NOSIG
Conditions at: LFOE (EVREUX/FAUVILLE , FR) observed 2300 UTC 16 June 2019
Temperature: 13.0°C (55°F)
Dewpoint: 11.0°C (52°F) [RH = 88%]
Pressure (altimeter): 30.12 inches Hg (1020.0 mb)
Winds: from the S (180 degrees) at 5 MPH (4 knots; 2.1 m/s)
Visibility: 6 or more miles (10+ km)
Ceiling: ceiling and visibility are OK
Clouds: unknown
Weather: no significant weather observed at this time

METAR text: LFOE 162230Z AUTO 17004KT CAVOK 14/11 Q1021 NOSIG
Conditions at: LFOE (EVREUX/FAUVILLE , FR) observed 2230 UTC 16 June 2019
Temperature: 14.0°C (57°F)
Dewpoint: 11.0°C (52°F) [RH = 82%]
Pressure (altimeter): 30.15 inches Hg (1021.0 mb)
Winds: from the S (170 degrees) at 5 MPH (4 knots; 2.1 m/s)
Visibility: 6 or more miles (10+ km)
Ceiling: ceiling and visibility are OK
Clouds: unknown
Weather: no significant weather observed at this time

METAR text: LFOE 162200Z AUTO 17003KT CAVOK 15/12 Q1020 NOSIG
Conditions at: LFOE (EVREUX/FAUVILLE , FR) observed 2200 UTC 16 June 2019
Temperature: 15.0°C (59°F)
Dewpoint: 12.0°C (54°F) [RH = 82%]
Pressure (altimeter): 30.12 inches Hg (1020.0 mb)
Winds: from the S (170 degrees) at 3 MPH (3 knots; 1.5 m/s)
Visibility: 6 or more miles (10+ km)
Ceiling: ceiling and visibility are OK
Clouds: unknown
Weather: no significant weather observed at this time

METAR text: LFOE 162130Z AUTO 19003KT CAVOK 14/12 Q1020 NOSIG
Conditions at: LFOE (EVREUX/FAUVILLE , FR) observed 2130 UTC 16 June 2019
Temperature: 14.0°C (57°F)
Dewpoint: 12.0°C (54°F) [RH = 88%]
Pressure (altimeter): 30.12 inches Hg (1020.0 mb)
Winds: from the S (190 degrees) at 3 MPH (3 knots; 1.5 m/s)
Visibility: 6 or more miles (10+ km)
Ceiling: ceiling and visibility are OK
Clouds: unknown
Weather: no significant weather observed at this time

METAR text: LFOE 162100Z AUTO 20002KT CAVOK 15/12 Q1021 NOSIG
Conditions at: LFOE (EVREUX/FAUVILLE , FR) observed 2100 UTC 16 June 2019
Temperature: 15.0°C (59°F)
Dewpoint: 12.0°C (54°F) [RH = 82%]
Pressure (altimeter): 30.15 inches Hg (1021.0 mb)
Winds: from the SSW (200 degrees) at 2 MPH (2 knots; 1.0 m/s)
Visibility: 6 or more miles (10+ km)
Ceiling: ceiling and visibility are OK
Clouds: unknown
Weather: no significant weather observed at this time

METAR text: LFOE 162030Z AUTO 20003KT CAVOK 16/12 Q1020 NOSIG
Conditions at: LFOE (EVREUX/FAUVILLE , FR) observed 2030 UTC 16 June 2019
Temperature: 16.0°C (61°F)
Dewpoint: 12.0°C (54°F) [RH = 77%]
Pressure (altimeter): 30.12 inches Hg (1020.0 mb)
Winds: from the SSW (200 degrees) at 3 MPH (3 knots; 1.5 m/s)
Visibility: 6 or more miles (10+ km)
Ceiling: ceiling and visibility are OK
Clouds: unknown
Weather: no significant weather observed at this time

METAR text: LFOE 162000Z AUTO 20004KT CAVOK 17/12 Q1020 NOSIG
Conditions at: LFOE (EVREUX/FAUVILLE , FR) observed 2000 UTC 16 June 2019
Temperature: 17.0°C (63°F)
Dewpoint: 12.0°C (54°F) [RH = 72%]
Pressure (altimeter): 30.12 inches Hg (1020.0 mb)
Winds: from the SSW (200 degrees) at 5 MPH (4 knots; 2.1 m/s)
Visibility: 6 or more miles (10+ km)
Ceiling: ceiling and visibility are OK
Clouds: unknown
Weather: no significant weather observed at this time

METAR text: LFOE 161930Z AUTO 20005KT CAVOK 18/12 Q1020 NOSIG
Conditions at: LFOE (EVREUX/FAUVILLE , FR) observed 1930 UTC 16 June 2019
Temperature: 18.0°C (64°F)
Dewpoint: 12.0°C (54°F) [RH = 68%]
Pressure (altimeter): 30.12 inches Hg (1020.0 mb)
Winds: from the SSW (200 degrees) at 6 MPH (5 knots; 2.6 m/s)
Visibility: 6 or more miles (10+ km)
Ceiling: ceiling and visibility are OK
Clouds: unknown
Weather: no significant weather observed at this time

METAR text: LFOE 161900Z AUTO 20006KT CAVOK 19/12 Q1020 NOSIG
Conditions at: LFOE (EVREUX/FAUVILLE , FR) observed 1900 UTC 16 June 2019
Temperature: 19.0°C (66°F)
Dewpoint: 12.0°C (54°F) [RH = 64%]
Pressure (altimeter): 30.12 inches Hg (1020.0 mb)
Winds: from the SSW (200 degrees) at 7 MPH (6 knots; 3.1 m/s)
Visibility: 6 or more miles (10+ km)
Ceiling: ceiling and visibility are OK
Clouds: unknown
Weather: no significant weather observed at this time

METAR text: LFOE 161830Z AUTO 19009KT CAVOK 20/11 Q1020 NOSIG
Conditions at: LFOE (EVREUX/FAUVILLE , FR) observed 1830 UTC 16 June 2019
Temperature: 20.0°C (68°F)
Dewpoint: 11.0°C (52°F) [RH = 56%]
Pressure (altimeter): 30.12 inches Hg (1020.0 mb)
Winds: from the S (190 degrees) at 10 MPH (9 knots; 4.6 m/s)
Visibility: 6 or more miles (10+ km)
Ceiling: ceiling and visibility are OK
Clouds: unknown
Weather: no significant weather observed at this time

METAR text: LFOE 161800Z AUTO 20008KT CAVOK 20/11 Q1020 NOSIG
Conditions at: LFOE (EVREUX/FAUVILLE , FR) observed 1800 UTC 16 June 2019
Temperature: 20.0°C (68°F)
Dewpoint: 11.0°C (52°F) [RH = 56%]
Pressure (altimeter): 30.12 inches Hg (1020.0 mb)
Winds: from the SSW (200 degrees) at 9 MPH (8 knots; 4.1 m/s)
Visibility: 6 or more miles (10+ km)
Ceiling: ceiling and visibility are OK
Clouds: unknown
Weather: no significant weather observed at this time

METAR text: LFOE 161730Z AUTO 20008KT CAVOK 21/12 Q1021 NOSIG
Conditions at: LFOE (EVREUX/FAUVILLE , FR) observed 1730 UTC 16 June 2019
Temperature: 21.0°C (70°F)
Dewpoint: 12.0°C (54°F) [RH = 56%]
Pressure (altimeter): 30.15 inches Hg (1021.0 mb)
Winds: from the SSW (200 degrees) at 9 MPH (8 knots; 4.1 m/s)
Visibility: 6 or more miles (10+ km)
Ceiling: ceiling and visibility are OK
Clouds: unknown
Weather: no significant weather observed at this time

METAR text: LFOE 161700Z AUTO 20009KT CAVOK 20/12 Q1020 TEMPO 14012KT
Conditions at: LFOE (EVREUX/FAUVILLE , FR) observed 1700 UTC 16 June 2019
Temperature: 20.0°C (68°F)
Dewpoint: 12.0°C (54°F) [RH = 60%]
Pressure (altimeter): 30.12 inches Hg (1020.0 mb)
Winds: from the SSW (200 degrees) at 10 MPH (9 knots; 4.6 m/s)
Visibility: 6 or more miles (10+ km)
Ceiling: ceiling and visibility are OK
Clouds: unknown
Weather: no significant weather observed at this time

METAR text: LFOE 161630Z AUTO 20009KT CAVOK 21/11 Q1021 TEMPO 14012KT
Conditions at: LFOE (EVREUX/FAUVILLE , FR) observed 1630 UTC 16 June 2019
Temperature: 21.0°C (70°F)
Dewpoint: 11.0°C (52°F) [RH = 53%]
Pressure (altimeter): 30.15 inches Hg (1021.0 mb)
Winds: from the SSW (200 degrees) at 10 MPH (9 knots; 4.6 m/s)
Visibility: 6 or more miles (10+ km)
Ceiling: ceiling and visibility are OK
Clouds: unknown
Weather: no significant weather observed at this time

METAR text: LFOE 161600Z AUTO 20009KT 160V230 9999 FEW042 BKN058 21/12 Q1021 NOSIG
Conditions at: LFOE (EVREUX/FAUVILLE , FR) observed 1600 UTC 16 June 2019
Temperature: 21.0°C (70°F)
Dewpoint: 12.0°C (54°F) [RH = 56%]
Pressure (altimeter): 30.15 inches Hg (1021.0 mb)
Winds: from the SSW (200 degrees) at 10 MPH (9 knots; 4.6 m/s)
Visibility: 6 or more miles (10+ km)
Ceiling: 5800 feet AGL
Clouds: few clouds at 4200 feet AGL
broken clouds at 5800 feet AGL
Weather: no significant weather observed at this time

METAR text: LFOE 161530Z AUTO 22010KT 9999 FEW044 SCT052 21/12 Q1021 BECMG 14012KT
Conditions at: LFOE (EVREUX/FAUVILLE , FR) observed 1530 UTC 16 June 2019
Temperature: 21.0°C (70°F)
Dewpoint: 12.0°C (54°F) [RH = 56%]
Pressure (altimeter): 30.15 inches Hg (1021.0 mb)
Winds: from the SW (220 degrees) at 12 MPH (10 knots; 5.1 m/s)
Visibility: 6 or more miles (10+ km)
Ceiling: at least 12,000 feet AGL
Clouds: few clouds at 4400 feet AGL
scattered clouds at 5200 feet AGL
Weather: no significant weather observed at this time

METAR text: LFOE 161500Z AUTO 20011KT 170V230 9000 FEW040 21/12 Q1021 NOSIG
Conditions at: LFOE (EVREUX/FAUVILLE , FR) observed 1500 UTC 16 June 2019
Temperature: 21.0°C (70°F)
Dewpoint: 12.0°C (54°F) [RH = 56%]
Pressure (altimeter): 30.15 inches Hg (1021.0 mb)
Winds: from the SSW (200 degrees) at 13 MPH (11 knots; 5.7 m/s)
Visibility: 6 miles ( 9 km)
Ceiling: at least 12,000 feet AGL
Clouds: few clouds at 4000 feet AGL
Weather: no significant weather observed at this time

METAR text: LFOE 161430Z AUTO 21012KT 180V240 9000 SCT035 SCT047 20/11 Q1021 TEMPO 4000 -SHRA BKN040 BKN050TCU
Conditions at: LFOE (EVREUX/FAUVILLE , FR) observed 1430 UTC 16 June 2019
Temperature: 20.0°C (68°F)
Dewpoint: 11.0°C (52°F) [RH = 56%]
Pressure (altimeter): 30.15 inches Hg (1021.0 mb)
Winds: from the SSW (210 degrees) at 14 MPH (12 knots; 6.2 m/s)
Visibility: 6 miles ( 9 km)
Ceiling: at least 12,000 feet AGL
Clouds: scattered clouds at 3500 feet AGL
scattered clouds at 4700 feet AGL
Weather: no significant weather observed at this time

METAR text: LFOE 161400Z AUTO 21012KT 9999 FEW033 SCT042 21/13 Q1021 TEMPO 4000 -SHRA BKN040 BKN050TCU
Conditions at: LFOE (EVREUX/FAUVILLE , FR) observed 1400 UTC 16 June 2019
Temperature: 21.0°C (70°F)
Dewpoint: 13.0°C (55°F) [RH = 60%]
Pressure (altimeter): 30.15 inches Hg (1021.0 mb)
Winds: from the SSW (210 degrees) at 14 MPH (12 knots; 6.2 m/s)
Visibility: 6 or more miles (10+ km)
Ceiling: at least 12,000 feet AGL
Clouds: few clouds at 3300 feet AGL
scattered clouds at 4200 feet AGL
Weather: no significant weather observed at this time

METAR text: LFOE 161330Z AUTO 20012KT 9999 FEW031 BKN054 20/12 Q1021 TEMPO 4000 -SHRA BKN040 BKN050TCU
Conditions at: LFOE (EVREUX/FAUVILLE , FR) observed 1330 UTC 16 June 2019
Temperature: 20.0°C (68°F)
Dewpoint: 12.0°C (54°F) [RH = 60%]
Pressure (altimeter): 30.15 inches Hg (1021.0 mb)
Winds: from the SSW (200 degrees) at 14 MPH (12 knots; 6.2 m/s)
Visibility: 6 or more miles (10+ km)
Ceiling: 5400 feet AGL
Clouds: few clouds at 3100 feet AGL
broken clouds at 5400 feet AGL
Weather: no significant weather observed at this time

METAR text: LFOE 161300Z AUTO 21013KT CAVOK 20/12 Q1021 TEMPO 4000 -SHRA BKN040 BKN050TCU
Conditions at: LFOE (EVREUX/FAUVILLE , FR) observed 1300 UTC 16 June 2019
Temperature: 20.0°C (68°F)
Dewpoint: 12.0°C (54°F) [RH = 60%]
Pressure (altimeter): 30.15 inches Hg (1021.0 mb)
Winds: from the SSW (210 degrees) at 15 MPH (13 knots; 6.7 m/s)
Visibility: 6 or more miles (10+ km)
Ceiling: ceiling and visibility are OK
Clouds: unknown
Weather: no significant weather observed at this time

METAR text: LFOE 161230Z AUTO 19015KT 9999 FEW029 SCT047 20/12 Q1021 TEMPO 4000 -SHRA BKN040 BKN050TCU
Conditions at: LFOE (EVREUX/FAUVILLE , FR) observed 1230 UTC 16 June 2019
Temperature: 20.0°C (68°F)
Dewpoint: 12.0°C (54°F) [RH = 60%]
Pressure (altimeter): 30.15 inches Hg (1021.0 mb)
Winds: from the S (190 degrees) at 17 MPH (15 knots; 7.7 m/s)
Visibility: 6 or more miles (10+ km)
Ceiling: at least 12,000 feet AGL
Clouds: few clouds at 2900 feet AGL
scattered clouds at 4700 feet AGL
Weather: no significant weather observed at this time

METAR text: LFOE 161200Z AUTO 20013KT 9999 FEW030 BKN050 19/12 Q1021 TEMPO 4000 -SHRA BKN040 BKN050TCU
Conditions at: LFOE (EVREUX/FAUVILLE , FR) observed 1200 UTC 16 June 2019
Temperature: 19.0°C (66°F)
Dewpoint: 12.0°C (54°F) [RH = 64%]
Pressure (altimeter): 30.15 inches Hg (1021.0 mb)
Winds: from the SSW (200 degrees) at 15 MPH (13 knots; 6.7 m/s)
Visibility: 6 or more miles (10+ km)
Ceiling: 5000 feet AGL
Clouds: few clouds at 3000 feet AGL
broken clouds at 5000 feet AGL
Weather: no significant weather observed at this time

METAR text: LFOE 161130Z AUTO 21012KT 180V240 9999 BKN028 BKN048 19/12 Q1021 TEMPO 4000 -SHRA BKN040 BKN050TCU
Conditions at: LFOE (EVREUX/FAUVILLE , FR) observed 1130 UTC 16 June 2019
Temperature: 19.0°C (66°F)
Dewpoint: 12.0°C (54°F) [RH = 64%]
Pressure (altimeter): 30.15 inches Hg (1021.0 mb)
Winds: from the SSW (210 degrees) at 14 MPH (12 knots; 6.2 m/s)
Visibility: 6 or more miles (10+ km)
Ceiling: 2800 feet AGL
Clouds: broken clouds at 2800 feet AGL
broken clouds at 4800 feet AGL
Weather: no significant weather observed at this time

METAR text: LFOE 161100Z AUTO 20011KT 9999 FEW025 SCT039 BKN045 19/12 Q1021 TEMPO 4000 -SHRA BKN040 BKN050TCU
Conditions at: LFOE (EVREUX/FAUVILLE , FR) observed 1100 UTC 16 June 2019
Temperature: 19.0°C (66°F)
Dewpoint: 12.0°C (54°F) [RH = 64%]
Pressure (altimeter): 30.15 inches Hg (1021.0 mb)
Winds: from the SSW (200 degrees) at 13 MPH (11 knots; 5.7 m/s)
Visibility: 6 or more miles (10+ km)
Ceiling: 4500 feet AGL
Clouds: few clouds at 2500 feet AGL
scattered clouds at 3900 feet AGL
broken clouds at 4500 feet AGL
Weather: no significant weather observed at this time

METAR text: LFOE 161030Z AUTO 20012KT 9999 BKN033 18/13 Q1021 TEMPO 4000 -SHRA BKN040 BKN050TCU
Conditions at: LFOE (EVREUX/FAUVILLE , FR) observed 1030 UTC 16 June 2019
Temperature: 18.0°C (64°F)
Dewpoint: 13.0°C (55°F) [RH = 73%]
Pressure (altimeter): 30.15 inches Hg (1021.0 mb)
Winds: from the SSW (200 degrees) at 14 MPH (12 knots; 6.2 m/s)
Visibility: 6 or more miles (10+ km)
Ceiling: 3300 feet AGL
Clouds: broken clouds at 3300 feet AGL
Weather: no significant weather observed at this time

METAR text: LFOE 161000Z AUTO 20012KT 9999 SCT019 OVC032 18/13 Q1021 TEMPO 4000 -SHRA BKN040 BKN050TCU
Conditions at: LFOE (EVREUX/FAUVILLE , FR) observed 1000 UTC 16 June 2019
Temperature: 18.0°C (64°F)
Dewpoint: 13.0°C (55°F) [RH = 73%]
Pressure (altimeter): 30.15 inches Hg (1021.0 mb)
Winds: from the SSW (200 degrees) at 14 MPH (12 knots; 6.2 m/s)
Visibility: 6 or more miles (10+ km)
Ceiling: 3200 feet AGL
Clouds: scattered clouds at 1900 feet AGL
overcast cloud deck at 3200 feet AGL
Weather: no significant weather observed at this time

METAR text: LFOE 160930Z AUTO 20011KT 9999 BKN017 BKN025 OVC037 17/13 Q1021 TEMPO 4000 -SHRA BKN040 BKN050TCU
Conditions at: LFOE (EVREUX/FAUVILLE , FR) observed 0930 UTC 16 June 2019
Temperature: 17.0°C (63°F)
Dewpoint: 13.0°C (55°F) [RH = 77%]
Pressure (altimeter): 30.15 inches Hg (1021.0 mb)
Winds: from the SSW (200 degrees) at 13 MPH (11 knots; 5.7 m/s)
Visibility: 6 or more miles (10+ km)
Ceiling: 1700 feet AGL
Clouds: broken clouds at 1700 feet AGL
broken clouds at 2500 feet AGL
overcast cloud deck at 3700 feet AGL
Weather: no significant weather observed at this time

METAR text: LFOE 160900Z AUTO 20013KT 9999 BKN017 BKN023 OVC033 16/13 Q1021 NOSIG
Conditions at: LFOE (EVREUX/FAUVILLE , FR) observed 0900 UTC 16 June 2019
Temperature: 16.0°C (61°F)
Dewpoint: 13.0°C (55°F) [RH = 82%]
Pressure (altimeter): 30.15 inches Hg (1021.0 mb)
Winds: from the SSW (200 degrees) at 15 MPH (13 knots; 6.7 m/s)
Visibility: 6 or more miles (10+ km)
Ceiling: 1700 feet AGL
Clouds: broken clouds at 1700 feet AGL
broken clouds at 2300 feet AGL
overcast cloud deck at 3300 feet AGL
Weather: no significant weather observed at this time

METAR text: LFOE 160830Z AUTO 21011KT 9999 SCT017 SCT026 BKN036 16/13 Q1021 NOSIG
Conditions at: LFOE (EVREUX/FAUVILLE , FR) observed 0830 UTC 16 June 2019
Temperature: 16.0°C (61°F)
Dewpoint: 13.0°C (55°F) [RH = 82%]
Pressure (altimeter): 30.15 inches Hg (1021.0 mb)
Winds: from the SSW (210 degrees) at 13 MPH (11 knots; 5.7 m/s)
Visibility: 6 or more miles (10+ km)
Ceiling: 3600 feet AGL
Clouds: scattered clouds at 1700 feet AGL
scattered clouds at 2600 feet AGL
broken clouds at 3600 feet AGL
Weather: no significant weather observed at this time

METAR text: LFOE 160800Z AUTO 22010KT 9999 FEW021 BKN027 OVC034 16/12 Q1021 NOSIG
Conditions at: LFOE (EVREUX/FAUVILLE , FR) observed 0800 UTC 16 June 2019
Temperature: 16.0°C (61°F)
Dewpoint: 12.0°C (54°F) [RH = 77%]
Pressure (altimeter): 30.15 inches Hg (1021.0 mb)
Winds: from the SW (220 degrees) at 12 MPH (10 knots; 5.1 m/s)
Visibility: 6 or more miles (10+ km)
Ceiling: 2700 feet AGL
Clouds: few clouds at 2100 feet AGL
broken clouds at 2700 feet AGL
overcast cloud deck at 3400 feet AGL
Weather: no significant weather observed at this time

METAR text: LFOE 160730Z AUTO 22010KT 9999 BKN018 BKN026 BKN040 16/12 Q1021 NOSIG
Conditions at: LFOE (EVREUX/FAUVILLE , FR) observed 0730 UTC 16 June 2019
Temperature: 16.0°C (61°F)
Dewpoint: 12.0°C (54°F) [RH = 77%]
Pressure (altimeter): 30.15 inches Hg (1021.0 mb)
Winds: from the SW (220 degrees) at 12 MPH (10 knots; 5.1 m/s)
Visibility: 6 or more miles (10+ km)
Ceiling: 1800 feet AGL
Clouds: broken clouds at 1800 feet AGL
broken clouds at 2600 feet AGL
broken clouds at 4000 feet AGL
Weather: no significant weather observed at this time

METAR text: LFOE 160700Z AUTO 21010KT 180V240 9999 SCT013 16/13 Q1020 NOSIG
Conditions at: LFOE (EVREUX/FAUVILLE , FR) observed 0700 UTC 16 June 2019
Temperature: 16.0°C (61°F)
Dewpoint: 13.0°C (55°F) [RH = 82%]
Pressure (altimeter): 30.12 inches Hg (1020.0 mb)
Winds: from the SSW (210 degrees) at 12 MPH (10 knots; 5.1 m/s)
Visibility: 6 or more miles (10+ km)
Ceiling: at least 12,000 feet AGL
Clouds: scattered clouds at 1300 feet AGL
Weather: no significant weather observed at this time

METAR text: LFOE 160630Z AUTO 20013KT 9999 FEW011 BKN046 15/13 Q1020 NOSIG
Conditions at: LFOE (EVREUX/FAUVILLE , FR) observed 0630 UTC 16 June 2019
Temperature: 15.0°C (59°F)
Dewpoint: 13.0°C (55°F) [RH = 88%]
Pressure (altimeter): 30.12 inches Hg (1020.0 mb)
Winds: from the SSW (200 degrees) at 15 MPH (13 knots; 6.7 m/s)
Visibility: 6 or more miles (10+ km)
Ceiling: 4600 feet AGL
Clouds: few clouds at 1100 feet AGL
broken clouds at 4600 feet AGL
Weather: no significant weather observed at this time

METAR text: LFOE 160600Z AUTO 21009KT 9999 SCT010 BKN038 BKN045 15/13 Q1020 NOSIG
Conditions at: LFOE (EVREUX/FAUVILLE , FR) observed 0600 UTC 16 June 2019
Temperature: 15.0°C (59°F)
Dewpoint: 13.0°C (55°F) [RH = 88%]
Pressure (altimeter): 30.12 inches Hg (1020.0 mb)
Winds: from the SSW (210 degrees) at 10 MPH (9 knots; 4.6 m/s)
Visibility: 6 or more miles (10+ km)
Ceiling: 3800 feet AGL
Clouds: scattered clouds at 1000 feet AGL
broken clouds at 3800 feet AGL
broken clouds at 4500 feet AGL
Weather: no significant weather observed at this time

METAR text: LFOE 160530Z AUTO 20007KT 9999 FEW011 OVC047 14/13 Q1020 NOSIG
Conditions at: LFOE (EVREUX/FAUVILLE , FR) observed 0530 UTC 16 June 2019
Temperature: 14.0°C (57°F)
Dewpoint: 13.0°C (55°F) [RH = 94%]
Pressure (altimeter): 30.12 inches Hg (1020.0 mb)
Winds: from the SSW (200 degrees) at 8 MPH (7 knots; 3.6 m/s)
Visibility: 6 or more miles (10+ km)
Ceiling: 4700 feet AGL
Clouds: few clouds at 1100 feet AGL
overcast cloud deck at 4700 feet AGL
Weather: no significant weather observed at this time

METAR text: LFOE 160500Z AUTO 20007KT 9999 FEW017 OVC052 14/13 Q1019 NOSIG
Conditions at: LFOE (EVREUX/FAUVILLE , FR) observed 0500 UTC 16 June 2019
Temperature: 14.0°C (57°F)
Dewpoint: 13.0°C (55°F) [RH = 94%]
Pressure (altimeter): 30.09 inches Hg (1019.0 mb)
Winds: from the SSW (200 degrees) at 8 MPH (7 knots; 3.6 m/s)
Visibility: 6 or more miles (10+ km)
Ceiling: 5200 feet AGL
Clouds: few clouds at 1700 feet AGL
overcast cloud deck at 5200 feet AGL
Weather: no significant weather observed at this time

METAR text: LFOE 160430Z AUTO 19008KT 9999 FEW017 OVC052 13/13 Q1019 NOSIG
Conditions at: LFOE (EVREUX/FAUVILLE , FR) observed 0430 UTC 16 June 2019
Temperature: 13.0°C (55°F)
Dewpoint: 13.0°C (55°F) [RH = 100%]
Pressure (altimeter): 30.09 inches Hg (1019.0 mb)
Winds: from the S (190 degrees) at 9 MPH (8 knots; 4.1 m/s)
Visibility: 6 or more miles (10+ km)
Ceiling: 5200 feet AGL
Clouds: few clouds at 1700 feet AGL
overcast cloud deck at 5200 feet AGL
Weather: no significant weather observed at this time

METAR text: LFOE 160400Z AUTO 19007KT 9999 BKN021 OVC027 13/13 Q1019 NOSIG
Conditions at: LFOE (EVREUX/FAUVILLE , FR) observed 0400 UTC 16 June 2019
Temperature: 13.0°C (55°F)
Dewpoint: 13.0°C (55°F) [RH = 100%]
Pressure (altimeter): 30.09 inches Hg (1019.0 mb)
Winds: from the S (190 degrees) at 8 MPH (7 knots; 3.6 m/s)
Visibility: 6 or more miles (10+ km)
Ceiling: 2100 feet AGL
Clouds: broken clouds at 2100 feet AGL
overcast cloud deck at 2700 feet AGL
Weather: no significant weather observed at this time

METAR text: LFOE 160330Z AUTO 20008KT 5000 -RADZ BR SCT022 BKN029 OVC043 13/13 Q1019 NOSIG
Conditions at: LFOE (EVREUX/FAUVILLE , FR) observed 0330 UTC 16 June 2019
Temperature: 13.0°C (55°F)
Dewpoint: 13.0°C (55°F) [RH = 100%]
Pressure (altimeter): 30.09 inches Hg (1019.0 mb)
Winds: from the SSW (200 degrees) at 9 MPH (8 knots; 4.1 m/s)
Visibility: 3 miles ( 5 km)
Ceiling: 2900 feet AGL
Clouds: scattered clouds at 2200 feet AGL
broken clouds at 2900 feet AGL
overcast cloud deck at 4300 feet AGL
Weather: -RA -DZ BR  (light rain, light drizzle, mist)

METAR text: LFOE 160300Z AUTO 20009KT 9999 FEW022 SCT028 BKN043 14/12 Q1019 NOSIG
Conditions at: LFOE (EVREUX/FAUVILLE , FR) observed 0300 UTC 16 June 2019
Temperature: 14.0°C (57°F)
Dewpoint: 12.0°C (54°F) [RH = 88%]
Pressure (altimeter): 30.09 inches Hg (1019.0 mb)
Winds: from the SSW (200 degrees) at 10 MPH (9 knots; 4.6 m/s)
Visibility: 6 or more miles (10+ km)
Ceiling: 4300 feet AGL
Clouds: few clouds at 2200 feet AGL
scattered clouds at 2800 feet AGL
broken clouds at 4300 feet AGL
Weather: no significant weather observed at this time

METAR text: LFOE 160230Z AUTO 20010KT 9999 OVC039 14/12 Q1019 NOSIG
Conditions at: LFOE (EVREUX/FAUVILLE , FR) observed 0230 UTC 16 June 2019
Temperature: 14.0°C (57°F)
Dewpoint: 12.0°C (54°F) [RH = 88%]
Pressure (altimeter): 30.09 inches Hg (1019.0 mb)
Winds: from the SSW (200 degrees) at 12 MPH (10 knots; 5.1 m/s)
Visibility: 6 or more miles (10+ km)
Ceiling: 3900 feet AGL
Clouds: overcast cloud deck at 3900 feet AGL
Weather: no significant weather observed at this time

METAR text: LFOE 160200Z AUTO 21009KT 9999 OVC040 14/12 Q1019 NOSIG
Conditions at: LFOE (EVREUX/FAUVILLE , FR) observed 0200 UTC 16 June 2019
Temperature: 14.0°C (57°F)
Dewpoint: 12.0°C (54°F) [RH = 88%]
Pressure (altimeter): 30.09 inches Hg (1019.0 mb)
Winds: from the SSW (210 degrees) at 10 MPH (9 knots; 4.6 m/s)
Visibility: 6 or more miles (10+ km)
Ceiling: 4000 feet AGL
Clouds: overcast cloud deck at 4000 feet AGL
Weather: no significant weather observed at this time

METAR text: LFOE 160130Z AUTO 19009KT 9999 FEW028 OVC040 14/12 Q1019 NOSIG
Conditions at: LFOE (EVREUX/FAUVILLE , FR) observed 0130 UTC 16 June 2019
Temperature: 14.0°C (57°F)
Dewpoint: 12.0°C (54°F) [RH = 88%]
Pressure (altimeter): 30.09 inches Hg (1019.0 mb)
Winds: from the S (190 degrees) at 10 MPH (9 knots; 4.6 m/s)
Visibility: 6 or more miles (10+ km)
Ceiling: 4000 feet AGL
Clouds: few clouds at 2800 feet AGL
overcast cloud deck at 4000 feet AGL
Weather: no significant weather observed at this time

METAR text: LFOE 160100Z AUTO 19009KT 9999 BKN027 BKN034 14/12 Q1019 NOSIG
Conditions at: LFOE (EVREUX/FAUVILLE , FR) observed 0100 UTC 16 June 2019
Temperature: 14.0°C (57°F)
Dewpoint: 12.0°C (54°F) [RH = 88%]
Pressure (altimeter): 30.09 inches Hg (1019.0 mb)
Winds: from the S (190 degrees) at 10 MPH (9 knots; 4.6 m/s)
Visibility: 6 or more miles (10+ km)
Ceiling: 2700 feet AGL
Clouds: broken clouds at 2700 feet AGL
broken clouds at 3400 feet AGL
Weather: no significant weather observed at this time

METAR text: LFOE 160030Z AUTO 19007KT 9999 BKN032 BKN039 BKN045 13/12 Q1018 NOSIG
Conditions at: LFOE (EVREUX/FAUVILLE , FR) observed 0030 UTC 16 June 2019
Temperature: 13.0°C (55°F)
Dewpoint: 12.0°C (54°F) [RH = 94%]
Pressure (altimeter): 30.06 inches Hg (1018.0 mb)
Winds: from the S (190 degrees) at 8 MPH (7 knots; 3.6 m/s)
Visibility: 6 or more miles (10+ km)
Ceiling: 3200 feet AGL
Clouds: broken clouds at 3200 feet AGL
broken clouds at 3900 feet AGL
broken clouds at 4500 feet AGL
Weather: no significant weather observed at this time

METAR text: LFOE 160000Z AUTO 21007KT 9999 FEW020 BKN037 BKN045 13/12 Q1019 NOSIG
Conditions at: LFOE (EVREUX/FAUVILLE , FR) observed 0000 UTC 16 June 2019
Temperature: 13.0°C (55°F)
Dewpoint: 12.0°C (54°F) [RH = 94%]
Pressure (altimeter): 30.09 inches Hg (1019.0 mb)
Winds: from the SSW (210 degrees) at 8 MPH (7 knots; 3.6 m/s)
Visibility: 6 or more miles (10+ km)
Ceiling: 3700 feet AGL
Clouds: few clouds at 2000 feet AGL
broken clouds at 3700 feet AGL
broken clouds at 4500 feet AGL
Weather: no significant weather observed at this time

Forecast for: LFOE (EVREUX/FAUVILLE , FR)
Text: TAF LFOE 170800Z 1709/1809 18006KT 9999 SCT040
Forecast period: 0900 UTC 17 June 2019 to 0900 UTC 18 June 2019
Forecast type: FROM: standard forecast or significant change
Winds: from the S (180 degrees) at 7 MPH (6 knots; 3.1 m/s)
Visibility: 6 or more miles 10+ km)
Ceiling: at least 12,000 feet AGL
Clouds: scattered clouds at 4000 feet AGL
Weather: no significant weather forecast for this period